createdAt,value
2018-07-08T00:01:04.153Z,101348.86
2018-07-08T00:03:32.138Z,101347.98
2018-07-08T00:06:00.232Z,101346.88
2018-07-08T00:08:28.415Z,101348.45
2018-07-08T00:10:57.918Z,101338.17
2018-07-08T00:13:26.027Z,101335.07
2018-07-08T00:15:54.037Z,101328.76
2018-07-08T00:18:23.033Z,101334.67
2018-07-08T00:20:52.361Z,101331.35
2018-07-08T00:23:21.860Z,101337.48
2018-07-08T00:25:49.893Z,101338.24
2018-07-08T00:28:18.060Z,101330.78
2018-07-08T00:30:46.094Z,101334.83
2018-07-08T00:33:14.089Z,101339.45
2018-07-08T00:35:42.360Z,101337.16
2018-07-08T00:38:10.380Z,101339.36
2018-07-08T00:40:38.420Z,101346.31
2018-07-08T00:43:06.424Z,101338.34
2018-07-08T00:45:34.413Z,101330.09
2018-07-08T00:48:02.441Z,101337.73
2018-07-08T00:50:30.493Z,101341.44
2018-07-08T00:52:58.496Z,101342.28
2018-07-08T00:55:26.529Z,101343.66
2018-07-08T00:57:54.535Z,101346.69
2018-07-08T01:00:29.265Z,101349.27
2018-07-08T01:02:57.249Z,101351.44
2018-07-08T01:05:25.293Z,101339.95
2018-07-08T01:07:53.333Z,101335.67
2018-07-08T01:10:21.541Z,101332.95
2018-07-08T01:12:49.568Z,101332.21
2018-07-08T01:15:17.849Z,101333.27
2018-07-08T01:17:45.875Z,101332.88
2018-07-08T01:20:13.861Z,101339.92
2018-07-08T01:22:41.868Z,101337.14
2018-07-08T01:25:14.096Z,101340.16
2018-07-08T01:27:42.188Z,101334.76
2018-07-08T01:30:11.541Z,101339.31
2018-07-08T01:32:39.556Z,101337.23
2018-07-08T01:35:07.591Z,101333.91
2018-07-08T01:37:35.586Z,101330.35
2018-07-08T01:40:03.629Z,101334.16
2018-07-08T01:42:31.928Z,101340.11
2018-07-08T01:45:00.596Z,101339.91
2018-07-08T01:47:28.620Z,101336.91
2018-07-08T01:49:56.632Z,101342.08
2018-07-08T01:52:25.616Z,101333.95
2018-07-08T01:54:53.957Z,101333.69
2018-07-08T01:57:22.085Z,101335.02
2018-07-08T01:59:50.968Z,101333.14
2018-07-08T02:02:19.148Z,101330.66
2018-07-08T02:04:47.512Z,101328.67
2018-07-08T02:07:16.002Z,101329.19
2018-07-08T02:09:44.081Z,101330.29
2018-07-08T02:12:12.129Z,101330.50
2018-07-08T02:14:40.149Z,101329.99
2018-07-08T02:17:08.173Z,101326.13
2018-07-08T02:19:36.178Z,101335.25
2018-07-08T02:22:04.219Z,101335.34
2018-07-08T02:24:32.478Z,101343.25
2018-07-08T02:27:00.477Z,101338.42
2018-07-08T02:29:29.029Z,101333.02
2018-07-08T02:31:57.037Z,101331.53
2018-07-08T02:34:25.548Z,101337.41
2018-07-08T02:36:53.628Z,101329.83
2018-07-08T02:39:21.653Z,101331.02
2018-07-08T02:41:49.935Z,101342.34
2018-07-08T02:44:17.943Z,101336.61
2018-07-08T02:46:45.947Z,101336.77
2018-07-08T02:49:14.111Z,101340.75
2018-07-08T02:51:42.077Z,101343.78
2018-07-08T02:54:10.073Z,101343.84
2018-07-08T02:56:38.069Z,101340.35
2018-07-08T02:59:06.101Z,101340.54
2018-07-08T03:01:34.097Z,101340.06
2018-07-08T03:04:02.088Z,101340.92
2018-07-08T03:06:30.106Z,101342.45
2018-07-08T03:08:58.145Z,101335.71
2018-07-08T03:11:26.162Z,101337.63
2018-07-08T03:13:54.182Z,101339.25
2018-07-08T03:16:22.188Z,101338.31
2018-07-08T03:18:50.232Z,101339.84
2018-07-08T03:21:18.248Z,101340.98
2018-07-08T03:23:46.290Z,101346.28
2018-07-08T03:26:14.261Z,101340.97
2018-07-08T03:28:42.254Z,101343.70
2018-07-08T03:31:10.269Z,101339.64
2018-07-08T03:33:38.321Z,101339.00
2018-07-08T03:36:06.616Z,101343.97
2018-07-08T03:38:34.628Z,101350.73
2018-07-08T03:41:02.656Z,101348.29
2018-07-08T03:43:30.636Z,101353.69
2018-07-08T03:45:58.616Z,101358.50
2018-07-08T03:48:26.611Z,101357.16
2018-07-08T03:50:54.722Z,101355.17
2018-07-08T03:53:22.733Z,101365.30
2018-07-08T03:55:51.313Z,101363.13
2018-07-08T03:58:19.360Z,101366.00
2018-07-08T04:00:47.361Z,101365.22
2018-07-08T04:03:15.365Z,101369.90
2018-07-08T04:05:43.380Z,101371.75
2018-07-08T04:08:11.404Z,101372.95
2018-07-08T04:10:39.405Z,101369.88
2018-07-08T04:13:07.394Z,101370.36
2018-07-08T04:15:35.381Z,101373.23
2018-07-08T04:18:06.434Z,101367.79
2018-07-08T04:20:34.552Z,101361.23
2018-07-08T04:23:02.837Z,101372.14
2018-07-08T04:25:31.180Z,101384.18
2018-07-08T04:27:59.173Z,101379.38
2018-07-08T04:30:28.554Z,101385.52
2018-07-08T04:32:56.452Z,101384.34
2018-07-08T04:35:24.504Z,101379.61
2018-07-08T04:37:52.565Z,101388.80
2018-07-08T04:40:20.732Z,101392.14
2018-07-08T04:42:48.942Z,101388.80
2018-07-08T04:45:16.976Z,101390.66
2018-07-08T04:47:45.160Z,101384.86
2018-07-08T04:50:13.141Z,101395.36
2018-07-08T04:52:41.304Z,101393.91
2018-07-08T04:55:09.361Z,101398.12
2018-07-08T04:57:37.437Z,101391.63
2018-07-08T05:00:05.460Z,101394.48
2018-07-08T05:02:33.449Z,101395.98
2018-07-08T05:05:01.654Z,101395.63
2018-07-08T05:07:29.655Z,101403.33
2018-07-08T05:09:58.000Z,101402.80
2018-07-08T05:12:26.264Z,101407.93
2018-07-08T05:14:54.281Z,101408.64
2018-07-08T05:17:22.299Z,101413.44
2018-07-08T05:19:50.325Z,101419.38
2018-07-08T05:22:18.317Z,101414.59
2018-07-08T05:24:46.332Z,101418.55
2018-07-08T05:27:14.365Z,101429.38
2018-07-08T05:29:42.412Z,101425.03
2018-07-08T05:32:10.408Z,101426.66
2018-07-08T05:34:38.415Z,101427.44
2018-07-08T05:37:07.388Z,101428.03
2018-07-08T05:39:35.465Z,101429.49
2018-07-08T05:42:03.449Z,101436.61
2018-07-08T05:44:31.474Z,101433.20
2018-07-08T05:46:59.530Z,101442.62
2018-07-08T05:49:27.516Z,101441.08
2018-07-08T05:51:55.526Z,101441.04
2018-07-08T05:54:23.528Z,101432.71
2018-07-08T05:56:51.764Z,101442.03
2018-07-08T05:59:19.758Z,101444.19
2018-07-08T06:01:47.752Z,101437.13
2018-07-08T06:04:15.749Z,101440.94
2018-07-08T06:06:43.761Z,101439.34
2018-07-08T06:09:11.753Z,101443.18
2018-07-08T06:11:39.793Z,101435.11
2018-07-08T06:14:07.820Z,101437.80
2018-07-08T06:16:35.812Z,101423.81
2018-07-08T06:19:03.812Z,101427.53
2018-07-08T06:21:31.801Z,101434.77
2018-07-08T06:23:59.896Z,101426.88
2018-07-08T06:26:27.997Z,101430.37
2018-07-08T06:28:56.132Z,101426.82
2018-07-08T06:31:24.097Z,101418.39
2018-07-08T06:33:52.102Z,101424.50
2018-07-08T06:36:20.093Z,101427.73
2018-07-08T06:38:48.068Z,101426.00
2018-07-08T06:41:16.081Z,101422.61
2018-07-08T06:43:44.053Z,101424.06
2018-07-08T06:46:12.047Z,101419.97
2018-07-08T06:48:40.136Z,101419.89
2018-07-08T06:51:08.146Z,101429.33
2018-07-08T06:53:36.140Z,101423.15
2018-07-08T06:56:04.135Z,101429.00
2018-07-08T06:58:32.112Z,101428.67
2018-07-08T07:01:00.111Z,101429.15
2018-07-08T07:03:28.087Z,101425.63
2018-07-08T07:05:56.076Z,101430.64
2018-07-08T07:08:24.064Z,101437.51
2018-07-08T07:10:52.157Z,101432.91
2018-07-08T07:13:20.144Z,101438.55
2018-07-08T07:15:48.140Z,101438.20
2018-07-08T07:18:16.135Z,101446.86
2018-07-08T07:20:44.205Z,101434.20
2018-07-08T07:23:12.212Z,101435.30
2018-07-08T07:25:40.208Z,101441.78
2018-07-08T07:28:08.197Z,101436.20
2018-07-08T07:30:36.188Z,101438.19
2018-07-08T07:33:04.172Z,101439.63
2018-07-08T07:35:32.153Z,101431.25
2018-07-08T07:38:00.138Z,101428.70
2018-07-08T07:40:28.112Z,101432.14
2018-07-08T07:42:56.109Z,101426.80
2018-07-08T07:45:24.092Z,101428.38
2018-07-08T07:47:52.056Z,101437.95
2018-07-08T07:50:20.054Z,101435.91
2018-07-08T07:52:48.034Z,101440.29
2018-07-08T07:55:16.028Z,101448.17
2018-07-08T07:57:44.027Z,101441.62
2018-07-08T08:00:11.996Z,101435.80
2018-07-08T08:02:40.007Z,101438.15
2018-07-08T08:05:08.120Z,101440.31
2018-07-08T08:07:36.444Z,101441.17
2018-07-08T08:10:05.017Z,101435.23
2018-07-08T08:12:33.033Z,101433.63
2018-07-08T08:15:01.013Z,101429.02
2018-07-08T08:17:29.022Z,101420.58
2018-07-08T08:19:57.000Z,101432.88
2018-07-08T08:22:24.989Z,101430.52
2018-07-08T08:24:52.985Z,101429.31
2018-07-08T08:27:20.968Z,101433.42
2018-07-08T08:29:48.961Z,101431.02
2018-07-08T08:32:16.940Z,101434.94
2018-07-08T08:35:20.380Z,101439.69
2018-07-08T08:37:51.396Z,101439.79
2018-07-08T08:40:20.607Z,101443.97
2018-07-08T08:42:48.606Z,101442.45
2018-07-08T08:45:17.858Z,101438.55
2018-07-08T08:47:45.833Z,101437.44
2018-07-08T08:50:14.401Z,101445.62
2018-07-08T08:52:42.393Z,101441.45
2018-07-08T08:55:11.113Z,101445.95
2018-07-08T08:57:39.115Z,101446.50
2018-07-08T09:00:10.717Z,101443.88
2018-07-08T09:02:39.489Z,101444.59
2018-07-08T09:05:07.648Z,101446.58
2018-07-08T09:07:35.648Z,101439.08
2018-07-08T09:10:03.632Z,101439.38
2018-07-08T09:12:31.651Z,101432.09
2018-07-08T09:14:59.704Z,101429.77
2018-07-08T09:17:27.696Z,101430.17
2018-07-08T09:19:55.680Z,101436.14
2018-07-08T09:22:23.665Z,101429.81
2018-07-08T09:24:51.657Z,101428.95
2018-07-08T09:27:19.653Z,101431.57
2018-07-08T09:29:47.637Z,101433.59
2018-07-08T09:32:15.632Z,101424.28
2018-07-08T09:34:43.682Z,101430.91
2018-07-08T09:37:11.716Z,101421.97
2018-07-08T09:39:39.712Z,101428.16
2018-07-08T09:42:07.717Z,101422.82
2018-07-08T09:44:35.725Z,101429.87
2018-07-08T09:47:03.783Z,101436.23
2018-07-08T09:49:31.758Z,101437.88
2018-07-08T09:51:59.751Z,101433.46
2018-07-08T09:54:27.753Z,101442.61
2018-07-08T09:56:55.727Z,101447.86
2018-07-08T09:59:23.729Z,101436.14
2018-07-08T10:01:51.708Z,101434.28
2018-07-08T10:04:22.876Z,101442.38
2018-07-08T10:06:51.658Z,101435.12
2018-07-08T10:09:21.868Z,101438.41
2018-07-08T10:11:49.869Z,101435.53
2018-07-08T10:14:19.153Z,101438.61
2018-07-08T10:16:47.180Z,101435.86
2018-07-08T10:19:16.362Z,101427.02
2018-07-08T10:21:44.393Z,101426.16
2018-07-08T10:24:12.604Z,101424.95
2018-07-08T10:26:40.626Z,101429.91
2018-07-08T10:29:11.261Z,101425.33
2018-07-08T10:31:46.700Z,101421.22
2018-07-08T10:34:14.693Z,101414.35
2018-07-08T10:36:42.680Z,101418.25
2018-07-08T10:39:11.986Z,101418.34
2018-07-08T10:41:40.260Z,101422.89
2018-07-08T10:44:08.284Z,101422.33
2018-07-08T10:46:36.280Z,101418.12
2018-07-08T10:49:04.307Z,101422.41
2018-07-08T10:51:32.382Z,101423.59
2018-07-08T10:54:00.509Z,101419.80
2018-07-08T10:56:28.518Z,101410.14
2018-07-08T10:58:56.512Z,101415.49
2018-07-08T11:01:24.557Z,101411.63
2018-07-08T11:03:52.583Z,101417.95
2018-07-08T11:06:20.577Z,101410.61
2018-07-08T11:08:48.589Z,101411.75
2018-07-08T11:11:16.635Z,101405.84
2018-07-08T11:13:44.665Z,101414.98
2018-07-08T11:16:12.681Z,101407.82
2018-07-08T11:18:40.715Z,101405.27
2018-07-08T11:21:08.741Z,101418.62
2018-07-08T11:23:36.764Z,101408.27
2018-07-08T11:26:05.014Z,101408.88
2018-07-08T11:28:33.036Z,101407.00
2018-07-08T11:31:00.984Z,101404.30
2018-07-08T11:33:28.988Z,101401.02
2018-07-08T11:35:56.985Z,101402.48
2018-07-08T11:38:24.968Z,101408.19
2018-07-08T11:40:53.052Z,101402.86
2018-07-08T11:43:21.084Z,101399.72
2018-07-08T11:45:49.117Z,101398.55
2018-07-08T11:48:17.158Z,101393.73
2018-07-08T11:50:45.213Z,101398.83
2018-07-08T11:53:13.224Z,101388.38
2018-07-08T11:55:41.229Z,101388.03
2018-07-08T11:58:09.232Z,101391.59
2018-07-08T12:00:37.287Z,101385.54
2018-07-08T12:03:05.280Z,101386.03
2018-07-08T12:05:33.337Z,101393.67
2018-07-08T12:08:01.321Z,101391.02
2018-07-08T12:10:29.337Z,101390.14
2018-07-08T12:12:57.342Z,101387.95
2018-07-08T12:15:25.349Z,101387.80
2018-07-08T12:17:53.332Z,101392.13
2018-07-08T12:20:21.430Z,101386.06
2018-07-08T12:22:49.409Z,101393.98
2018-07-08T12:25:17.412Z,101391.06
2018-07-08T12:27:45.487Z,101396.48
2018-07-08T12:30:13.392Z,101401.19
2018-07-08T12:32:41.432Z,101403.39
2018-07-08T12:35:09.480Z,101399.31
2018-07-08T12:37:37.527Z,101395.19
2018-07-08T12:40:05.556Z,101405.73
2018-07-08T12:42:33.601Z,101398.54
2018-07-08T12:45:01.647Z,101395.81
2018-07-08T12:47:29.664Z,101394.11
2018-07-08T12:49:57.744Z,101392.27
2018-07-08T12:52:25.751Z,101400.38
2018-07-08T12:54:53.751Z,101395.21
2018-07-08T12:57:21.761Z,101385.42
2018-07-08T12:59:49.792Z,101385.64
2018-07-08T13:02:17.780Z,101387.28
2018-07-08T13:04:45.844Z,101387.28
2018-07-08T13:07:13.886Z,101391.89
2018-07-08T13:09:41.885Z,101394.82
2018-07-08T13:12:09.888Z,101400.37
2018-07-08T13:14:37.877Z,101386.56
2018-07-08T13:17:05.911Z,101402.55
2018-07-08T13:19:35.020Z,101387.17
2018-07-08T13:22:03.092Z,101387.54
2018-07-08T13:24:31.136Z,101388.05
2018-07-08T13:26:59.155Z,101385.00
2018-07-08T13:29:27.141Z,101390.92
2018-07-08T13:31:55.151Z,101394.32
2018-07-08T13:34:23.178Z,101391.90
2018-07-08T13:36:51.217Z,101390.98
2018-07-08T13:39:19.235Z,101395.45
2018-07-08T13:41:47.235Z,101392.59
2018-07-08T13:44:15.377Z,101394.02
2018-07-08T13:46:44.049Z,101401.98
2018-07-08T13:49:12.056Z,101398.06
2018-07-08T13:51:40.090Z,101399.08
2018-07-08T13:54:08.099Z,101392.66
2018-07-08T13:56:36.120Z,101394.80
2018-07-08T13:59:04.169Z,101392.13
2018-07-08T14:01:32.179Z,101390.80
2018-07-08T14:04:00.209Z,101389.42
2018-07-08T14:06:28.273Z,101390.13
2018-07-08T14:08:56.313Z,101381.83
2018-07-08T14:11:24.319Z,101382.55
2018-07-08T14:13:52.332Z,101385.09
2018-07-08T14:16:20.324Z,101378.52
2018-07-08T14:18:48.346Z,101386.05
2018-07-08T14:21:16.336Z,101384.32
2018-07-08T14:23:44.312Z,101389.78
2018-07-08T14:26:12.348Z,101383.08
2018-07-08T14:28:40.329Z,101379.94
2018-07-08T14:31:08.402Z,101389.89
2018-07-08T14:33:36.373Z,101383.89
2018-07-08T14:36:04.667Z,101383.80
2018-07-08T14:38:32.664Z,101376.87
2018-07-08T14:41:00.681Z,101382.78
2018-07-08T14:43:28.715Z,101374.30
2018-07-08T14:45:56.757Z,101378.80
2018-07-08T14:48:24.785Z,101370.69
2018-07-08T14:50:52.790Z,101374.16
2018-07-08T14:53:20.813Z,101376.99
2018-07-08T14:55:48.876Z,101367.93
2018-07-08T14:58:16.876Z,101369.21
2018-07-08T15:00:44.925Z,101366.88
2018-07-08T15:03:12.948Z,101369.27
2018-07-08T15:05:40.920Z,101366.77
2018-07-08T15:08:09.675Z,101366.66
2018-07-08T15:10:37.665Z,101375.77
2018-07-08T15:13:05.877Z,101369.95
2018-07-08T15:15:33.880Z,101368.77
2018-07-08T15:18:01.900Z,101376.07
2018-07-08T15:20:29.900Z,101372.02
2018-07-08T15:22:57.898Z,101365.14
2018-07-08T15:25:25.979Z,101366.42
2018-07-08T15:27:53.965Z,101362.34
2018-07-08T15:30:21.980Z,101360.48
2018-07-08T15:32:50.061Z,101362.57
2018-07-08T15:35:18.033Z,101371.38
2018-07-08T15:37:47.008Z,101369.14
2018-07-08T15:40:15.077Z,101357.66
2018-07-08T15:42:43.101Z,101360.17
2018-07-08T15:45:11.120Z,101363.16
2018-07-08T15:47:39.168Z,101355.91
2018-07-08T15:50:07.235Z,101364.22
2018-07-08T15:52:35.236Z,101355.47
2018-07-08T15:55:03.313Z,101354.28
2018-07-08T15:57:31.352Z,101355.55
2018-07-08T15:59:59.321Z,101351.65
2018-07-08T16:02:27.349Z,101347.26
2018-07-08T16:04:55.355Z,101355.91
2018-07-08T16:07:23.332Z,101359.73
2018-07-08T16:09:51.341Z,101355.06
2018-07-08T16:12:19.333Z,101356.41
2018-07-08T16:14:47.313Z,101356.20
2018-07-08T16:17:16.100Z,101365.68
2018-07-08T16:19:44.100Z,101363.66
2018-07-08T16:22:12.107Z,101361.98
2018-07-08T16:24:40.116Z,101352.02
2018-07-08T16:27:08.520Z,101357.20
2018-07-08T16:29:36.513Z,101363.27
2018-07-08T16:32:04.542Z,101353.16
2018-07-08T16:34:32.753Z,101355.72
2018-07-08T16:37:00.854Z,101356.67
2018-07-08T16:39:28.869Z,101354.09
2018-07-08T16:41:56.861Z,101353.64
2018-07-08T16:44:24.849Z,101353.69
2018-07-08T16:46:52.844Z,101354.20
2018-07-08T16:49:20.829Z,101350.58
2018-07-08T16:51:48.841Z,101359.11
2018-07-08T16:54:16.876Z,101353.30
2018-07-08T16:56:44.901Z,101352.77
2018-07-08T16:59:12.925Z,101354.48
2018-07-08T17:01:40.995Z,101354.67
2018-07-08T17:04:08.997Z,101349.58
2018-07-08T17:06:37.009Z,101355.37
2018-07-08T17:09:06.901Z,101363.16
2018-07-08T17:11:34.905Z,101359.61
2018-07-08T17:14:02.960Z,101355.83
2018-07-08T17:16:30.978Z,101351.02
2018-07-08T17:18:59.128Z,101352.95
2018-07-08T17:21:27.280Z,101346.31
2018-07-08T17:23:55.485Z,101347.73
2018-07-08T17:26:23.551Z,101349.65
2018-07-08T17:28:51.593Z,101340.70
2018-07-08T17:31:19.580Z,101342.12
2018-07-08T17:33:47.701Z,101346.77
2018-07-08T17:36:15.815Z,101339.05
2018-07-08T17:38:43.820Z,101338.82
2018-07-08T17:41:11.819Z,101346.70
2018-07-08T17:43:39.942Z,101344.95
2018-07-08T17:46:07.945Z,101353.59
2018-07-08T17:48:35.969Z,101344.69
2018-07-08T17:51:03.955Z,101348.55
2018-07-08T17:53:32.089Z,101347.88
2018-07-08T17:56:00.070Z,101350.58
2018-07-08T17:58:28.060Z,101350.53
2018-07-08T18:00:56.044Z,101346.28
2018-07-08T18:03:24.145Z,101346.61
2018-07-08T18:05:52.073Z,101350.18
2018-07-08T18:08:20.084Z,101344.28
2018-07-08T18:10:48.087Z,101350.42
2018-07-08T18:13:16.669Z,101348.91
2018-07-08T18:15:44.701Z,101347.05
2018-07-08T18:18:12.721Z,101349.89
2018-07-08T18:20:40.762Z,101351.23
2018-07-08T18:23:08.824Z,101357.81
2018-07-08T18:25:36.819Z,101353.38
2018-07-08T18:28:04.822Z,101351.83
2018-07-08T18:30:34.145Z,101350.03
2018-07-08T18:33:02.160Z,101349.70
2018-07-08T18:35:30.165Z,101354.53
2018-07-08T18:37:58.184Z,101355.06
2018-07-08T18:40:26.417Z,101357.77
2018-07-08T18:42:54.438Z,101348.72
2018-07-08T18:45:22.555Z,101357.25
2018-07-08T18:47:50.525Z,101352.36
2018-07-08T18:50:18.569Z,101363.22
2018-07-08T18:52:46.573Z,101357.87
2018-07-08T18:55:14.574Z,101359.14
2018-07-08T18:57:42.587Z,101361.37
2018-07-08T19:00:11.716Z,101359.60
2018-07-08T19:02:39.729Z,101358.63
2018-07-08T19:05:08.167Z,101361.31
2018-07-08T19:07:36.160Z,101361.88
2018-07-08T19:10:04.209Z,101362.67
2018-07-08T19:12:32.255Z,101368.80
2018-07-08T19:15:00.328Z,101364.89
2018-07-08T19:17:28.332Z,101362.71
2018-07-08T19:19:56.344Z,101365.05
2018-07-08T19:22:24.364Z,101364.48
2018-07-08T19:24:52.382Z,101374.55
2018-07-08T19:27:20.394Z,101377.48
2018-07-08T19:29:48.425Z,101375.48
2018-07-08T19:32:16.416Z,101367.30
2018-07-08T19:34:44.429Z,101371.77
2018-07-08T19:37:12.433Z,101371.43
2018-07-08T19:39:40.664Z,101381.11
2018-07-08T19:42:08.656Z,101383.48
2018-07-08T19:44:36.689Z,101378.44
2018-07-08T19:47:04.694Z,101378.20
2018-07-08T19:49:32.706Z,101378.83
2018-07-08T19:52:00.745Z,101386.06
2018-07-08T19:54:28.745Z,101384.59
2018-07-08T19:56:56.740Z,101393.53
2018-07-08T19:59:24.818Z,101387.33
2018-07-08T20:01:52.890Z,101389.80
2018-07-08T20:04:20.897Z,101392.36
2018-07-08T20:06:48.921Z,101391.78
2018-07-08T20:09:17.092Z,101387.83
2018-07-08T20:11:45.121Z,101388.15
2018-07-08T20:14:13.150Z,101384.35
2018-07-08T20:16:41.145Z,101392.53
2018-07-08T20:19:09.136Z,101394.91
2018-07-08T20:21:37.185Z,101394.28
2018-07-08T20:24:05.152Z,101404.69
2018-07-08T20:26:33.168Z,101403.33
2018-07-08T20:29:01.161Z,101397.27
2018-07-08T20:31:29.188Z,101393.00
2018-07-08T20:33:57.224Z,101392.16
2018-07-08T20:36:25.257Z,101395.23
2018-07-08T20:38:53.260Z,101393.58
2018-07-08T20:41:21.774Z,101397.98
2018-07-08T20:43:49.821Z,101394.28
2018-07-08T20:46:17.839Z,101395.81
2018-07-08T20:48:45.817Z,101398.38
2018-07-08T20:51:13.809Z,101402.41
2018-07-08T20:53:41.860Z,101405.16
2018-07-08T20:56:09.885Z,101402.67
2018-07-08T20:58:37.953Z,101400.57
2018-07-08T21:01:05.957Z,101398.38
2018-07-08T21:03:33.961Z,101408.25
2018-07-08T21:06:01.969Z,101411.47
2018-07-08T21:08:29.944Z,101407.11
2018-07-08T21:10:57.972Z,101407.48
2018-07-08T21:13:26.484Z,101404.38
2018-07-08T21:15:54.514Z,101404.82
2018-07-08T21:18:22.565Z,101402.44
2018-07-08T21:20:50.641Z,101403.44
2018-07-08T21:23:18.652Z,101408.18
2018-07-08T21:25:46.800Z,101408.98
2018-07-08T21:28:14.831Z,101414.08
2018-07-08T21:30:43.056Z,101407.08
2018-07-08T21:33:11.334Z,101410.45
2018-07-08T21:35:39.352Z,101410.47
2018-07-08T21:38:07.353Z,101405.97
2018-07-08T21:40:35.441Z,101413.39
2018-07-08T21:43:03.420Z,101406.81
2018-07-08T21:45:31.421Z,101408.17
2018-07-08T21:47:59.425Z,101404.53
2018-07-08T21:50:27.392Z,101410.48
2018-07-08T21:52:55.397Z,101414.96
2018-07-08T21:55:23.388Z,101407.55
2018-07-08T21:57:51.376Z,101408.78
2018-07-08T22:00:29.355Z,101417.41
2018-07-08T22:02:57.482Z,101410.58
2018-07-08T22:05:25.901Z,101407.55
2018-07-08T22:07:59.468Z,101415.78
2018-07-08T22:10:29.816Z,101416.03
2018-07-08T22:12:58.308Z,101419.65
2018-07-08T22:15:26.393Z,101417.96
2018-07-08T22:17:54.726Z,101418.59
2018-07-08T22:20:22.682Z,101407.73
2018-07-08T22:22:50.756Z,101404.82
2018-07-08T22:25:18.824Z,101403.63
2018-07-08T22:27:46.856Z,101400.47
2018-07-08T22:30:15.304Z,101401.31
2018-07-08T22:32:43.316Z,101406.50
2018-07-08T22:35:11.329Z,101416.37
2018-07-08T22:37:39.452Z,101408.22
2018-07-08T22:40:08.751Z,101414.69
2018-07-08T22:42:37.332Z,101414.28
2018-07-08T22:45:05.587Z,101411.52
2018-07-08T22:47:33.783Z,101410.63
2018-07-08T22:50:01.773Z,101406.88
2018-07-08T22:52:29.773Z,101406.77
2018-07-08T22:54:57.785Z,101402.39
2018-07-08T22:57:25.813Z,101401.06
2018-07-08T23:00:03.900Z,101397.68
2018-07-08T23:02:40.644Z,101395.95
2018-07-08T23:05:08.631Z,101398.01
2018-07-08T23:07:36.985Z,101399.43
2018-07-08T23:10:04.974Z,101396.77
2018-07-08T23:12:33.906Z,101398.95
2018-07-08T23:15:01.895Z,101390.69
2018-07-08T23:17:29.905Z,101393.60
2018-07-08T23:19:57.960Z,101395.09
2018-07-08T23:22:37.376Z,101398.45
2018-07-08T23:25:05.457Z,101396.70
2018-07-08T23:27:33.536Z,101393.52
2018-07-08T23:30:01.542Z,101393.24
2018-07-08T23:32:29.673Z,101393.85
2018-07-08T23:34:57.666Z,101392.98
2018-07-08T23:37:25.792Z,101396.39
2018-07-08T23:39:53.780Z,101390.14
2018-07-08T23:42:21.771Z,101394.45
2018-07-08T23:44:49.797Z,101395.36
2018-07-08T23:47:17.781Z,101395.27
2018-07-08T23:49:45.787Z,101392.95
2018-07-08T23:52:13.945Z,101389.48
2018-07-08T23:54:42.253Z,101391.20
2018-07-08T23:57:10.225Z,101391.41
2018-07-08T23:59:38.228Z,101390.82
